EGMC/SEN METAR and TAF weather

Enter ICAO airport designator
Station Type Date Time Source
EGMC METAR 2019/06/26 18:50 UTC NOAA

EGMC 261850Z 04013KT 9999 BKN017 16/12 Q1029


Station Type Date Time Source
EGMC Decoded METAR 2019/06/26 18:50 UTC NOAA

Southend-On-Sea , United Kingdom (EGMC) 51-34N 000-42E
Jun 26, 2019 - 02:50 PM EDT / 2019.06.26 1850 UTC
Wind: from the NE (040 degrees) at 15 MPH (13 KT):0
Visibility: greater than 7 mile(s):0
Sky conditions: mostly cloudy
Temperature: 60 F (16 C)
Dew Point: 53 F (12 C)
Relative Humidity: 77%
Pressure (altimeter): 30.39 in. Hg (1029 hPa)
ob: EGMC 261850Z 04013KT 9999 BKN017 16/12 Q1029
cycle: 19

Station Type Date Time Source
EGMC TAF 2016/04/18 18:00 UTC NOAA

TAF EGMC 181658Z 1818/1903 28008KT 9999 BKN045

Example: see airport list